createdAt,value
2022-08-05T16:24:12.715Z,23.30
2022-08-05T16:26:59.513Z,23.35
2022-08-05T16:29:28.746Z,23.36
2022-08-05T16:31:57.997Z,23.33
2022-08-05T16:34:25.379Z,23.53
2022-08-05T16:36:53.858Z,23.58
2022-08-05T16:39:20.620Z,23.50
2022-08-05T16:42:14.592Z,23.52
2022-08-05T16:44:34.371Z,23.71
2022-08-05T16:47:04.591Z,23.54
2022-08-05T16:49:31.196Z,23.35
2022-08-05T16:51:57.742Z,23.12
2022-08-05T16:54:30.465Z,23.08
2022-08-05T16:56:59.781Z,23.07
2022-08-05T16:59:27.830Z,23.12
2022-08-05T17:01:57.470Z,22.96
2022-08-05T17:04:26.962Z,22.95
2022-08-05T17:06:55.962Z,23.02
2022-08-05T17:09:28.285Z,23.11
2022-08-05T17:12:00.064Z,23.01
2022-08-05T17:14:36.850Z,23.08
2022-08-05T17:17:05.594Z,23.01
2022-08-05T17:19:32.237Z,22.92
2022-08-05T17:22:00.939Z,22.81
2022-08-05T17:24:38.767Z,22.72
2022-08-05T17:27:10.258Z,22.87
2022-08-05T17:29:41.329Z,22.70
2022-08-05T17:32:17.093Z,22.78
2022-08-05T17:34:48.461Z,22.75
2022-08-05T17:37:35.877Z,22.91
2022-08-05T17:40:10.725Z,23.08
2022-08-05T17:42:41.802Z,23.16
2022-08-05T17:45:29.564Z,23.39
2022-08-05T17:48:07.701Z,23.54
2022-08-05T17:50:34.432Z,23.91
2022-08-05T17:53:02.564Z,23.71
2022-08-05T17:55:38.255Z,23.66
2022-08-05T17:58:12.674Z,23.47
2022-08-05T18:00:47.539Z,23.49
2022-08-05T18:03:33.246Z,23.28
2022-08-05T18:06:10.882Z,23.29
2022-08-05T18:08:44.094Z,23.15
2022-08-05T18:11:23.891Z,23.43
2022-08-05T18:13:56.274Z,23.18
2022-08-05T18:16:23.209Z,23.11
2022-08-05T18:18:50.280Z,23.07
2022-08-05T18:21:20.054Z,22.80
2022-08-05T18:23:49.438Z,22.68
2022-08-05T18:26:20.829Z,22.70
2022-08-05T18:28:47.388Z,22.43
2022-08-05T18:31:15.792Z,22.48
2022-08-05T18:33:47.095Z,22.37
2022-08-05T18:36:17.207Z,22.33
2022-08-05T18:38:46.168Z,22.09
2022-08-05T18:41:53.397Z,22.16
2022-08-05T18:44:06.353Z,21.92
2022-08-05T18:46:34.327Z,21.81
2022-08-05T18:49:21.141Z,21.59
2022-08-05T18:52:17.153Z,21.56
2022-08-05T18:54:59.992Z,21.58
2022-08-05T18:57:26.637Z,21.45
2022-08-05T19:00:20.626Z,21.30
2022-08-05T19:02:47.583Z,21.21
2022-08-05T19:06:11.915Z,21.21
2022-08-05T19:08:02.754Z,21.01
2022-08-05T19:10:30.494Z,20.90
2022-08-05T19:12:57.489Z,20.81
2022-08-05T19:15:58.081Z,20.84
2022-08-05T19:18:20.878Z,20.62
2022-08-05T19:20:52.359Z,20.62
2022-08-05T19:23:22.474Z,20.66
2022-08-05T19:26:09.275Z,20.57
2022-08-05T19:28:42.025Z,20.46
2022-08-05T19:31:09.498Z,20.42
2022-08-05T19:33:40.610Z,20.29
2022-08-05T19:36:16.957Z,20.15
2022-08-05T19:38:44.988Z,20.05
2022-08-05T19:41:11.598Z,20.02
2022-08-05T19:44:05.375Z,20.02
2022-08-05T19:46:29.348Z,19.98
2022-08-05T19:48:56.457Z,19.84
2022-08-05T19:51:56.553Z,19.85
2022-08-05T19:54:21.794Z,19.80
2022-08-05T19:56:55.322Z,19.70
2022-08-05T19:59:55.339Z,19.64
2022-08-05T20:02:08.630Z,19.64
2022-08-05T20:04:35.295Z,19.67
2022-08-05T20:07:02.743Z,19.54
2022-08-05T20:09:29.419Z,19.63
2022-08-05T20:12:16.191Z,19.50
2022-08-05T20:14:45.624Z,19.43
2022-08-05T20:17:16.233Z,19.39
2022-08-05T20:19:43.146Z,19.32
2022-08-05T20:22:10.818Z,19.30
2022-08-05T20:24:38.042Z,19.24
2022-08-05T20:27:11.447Z,19.28
2022-08-05T20:29:38.409Z,19.26
2022-08-05T20:32:06.644Z,19.18
2022-08-05T20:34:33.412Z,19.10
2022-08-05T20:37:00.831Z,19.10
2022-08-05T20:39:36.616Z,18.95
2022-08-05T20:42:04.747Z,19.08
2022-08-05T20:44:32.924Z,19.05
2022-08-05T20:47:07.369Z,18.89
2022-08-05T20:49:39.634Z,18.96
2022-08-05T20:52:07.762Z,18.99
2022-08-05T20:54:42.942Z,18.88
2022-08-05T20:57:42.754Z,18.64
2022-08-05T21:00:40.042Z,18.71
2022-08-05T21:03:01.555Z,18.75
2022-08-05T21:05:48.034Z,18.65
2022-08-05T21:08:15.511Z,18.63
2022-08-05T21:10:49.079Z,18.54
2022-08-05T21:13:26.403Z,18.50
2022-08-05T21:16:03.616Z,18.50
2022-08-05T21:18:30.487Z,18.34
2022-08-05T21:20:57.432Z,18.37
2022-08-05T21:23:24.773Z,18.36
2022-08-05T21:25:51.714Z,18.20
2022-08-05T21:28:23.840Z,18.17
2022-08-05T21:30:57.292Z,18.21
2022-08-05T21:33:24.237Z,18.10
2022-08-05T21:36:03.847Z,18.13
2022-08-05T21:38:30.453Z,18.20
2022-08-05T21:40:57.107Z,18.00
2022-08-05T21:43:25.149Z,17.91
2022-08-05T21:45:57.987Z,17.83
2022-08-05T21:48:28.691Z,17.73
2022-08-05T21:50:55.798Z,17.68
2022-08-05T21:53:27.711Z,17.66
2022-08-05T21:56:01.799Z,17.66
2022-08-05T21:58:41.933Z,17.72
2022-08-05T22:01:10.611Z,17.65
2022-08-05T22:03:52.122Z,17.54
2022-08-05T22:06:22.275Z,17.59
2022-08-05T22:08:51.895Z,17.50
2022-08-05T22:11:19.286Z,17.42
2022-08-05T22:14:06.460Z,17.47
2022-08-05T22:16:51.878Z,17.30
2022-08-05T22:20:01.791Z,17.32
2022-08-05T22:22:10.316Z,17.27
2022-08-05T22:24:57.189Z,17.23
2022-08-05T22:28:04.892Z,17.30
2022-08-05T22:30:35.282Z,17.23
2022-08-05T22:33:15.471Z,17.11
2022-08-05T22:35:48.606Z,17.03
2022-08-05T22:38:16.424Z,17.06
2022-08-05T22:40:50.081Z,16.94
2022-08-05T22:43:36.703Z,16.90
2022-08-05T22:46:12.005Z,16.82
2022-08-05T22:48:41.057Z,16.82
2022-08-05T22:51:07.780Z,16.86
2022-08-05T22:53:35.979Z,16.65
2022-08-05T22:56:03.559Z,16.79
2022-08-05T22:58:36.679Z,16.76
2022-08-05T23:01:03.318Z,16.76
2022-08-05T23:03:57.794Z,16.65
2022-08-05T23:06:19.119Z,16.62
2022-08-05T23:08:45.797Z,16.49
2022-08-05T23:11:18.851Z,16.52
2022-08-05T23:13:45.871Z,16.51
2022-08-05T23:16:33.207Z,16.36
2022-08-05T23:19:00.270Z,16.36
2022-08-05T23:21:42.550Z,16.35
2022-08-05T23:24:14.579Z,16.24
2022-08-05T23:26:41.937Z,16.22
2022-08-05T23:29:10.869Z,16.22
2022-08-05T23:31:42.482Z,16.17
2022-08-05T23:34:09.071Z,16.10
2022-08-05T23:36:40.274Z,16.17
2022-08-05T23:39:17.532Z,16.13
2022-08-05T23:41:50.846Z,16.10
2022-08-05T23:44:17.418Z,16.10
2022-08-05T23:46:46.699Z,16.03
2022-08-05T23:49:22.293Z,16.05
2022-08-05T23:52:10.642Z,16.04
2022-08-05T23:54:38.689Z,15.96
2022-08-05T23:57:06.488Z,15.93
2022-08-05T23:59:37.604Z,16.13
